Jacksonville, FL (32219)

9:06 AM EDT on June 26, 2017 (GMT -0400)
Westlake | | Change Station

Elev 91 ft 30.38 °N, 81.83 °W | Updated 12 minutes ago

Partly Cloudy
Partly Cloudy
79.2 °F
Feels Like 84 °F
N
0.0
Wind Variable Wind from NW
Gusts 0.0 mph

Today
High -- | Low -- °F
--% Chance of Precip.
Yesterday
High -- | Low -- °F
Precip. -- in
Pressure 30.07 in
Visibility 10.0 miles
Clouds Few 1500 ft
Scattered Clouds 15000 ft
Mostly Cloudy 25000 ft
Heat Index 84 °F
Dew Point 76 °F
Humidity 91%
Rainfall 0.00 in
Snow Depth Not available.
6:26 AM 8:33 PM
Waxing Crescent, 9% visible
METAR KJAX 261256Z 30005KT 10SM FEW015 SCT150 BKN250 27/24 A3007 RMK AO2 SLP182 T02720239
Pressure 30.07 in
Visibility 10.0 miles
Clouds Few 1500 ft
Scattered Clouds 15000 ft
Mostly Cloudy 25000 ft
Heat Index 84 °F
Dew Point 76 °F
Humidity 91%
Rainfall 0.00 in
Snow Depth Not available.
6:26 AM 8:33 PM
Waxing Crescent, 9% visible
METAR KJAX 261256Z 30005KT 10SM FEW015 SCT150 BKN250 27/24 A3007 RMK AO2 SLP182 T02720239

Get Severe Weather Alerts

Thanks for signing up!

Be on the lookout for a verification email in your inbox.

You'll start receiving the daily forecast at 6 AM.

×

10-Day Weather Forecast

Almanac

Astronomy

Jun. 26, 2017 Rise Set
Actual Time
Civil Twilight
Nautical Twilight
Astronomical Twilight
Moon
Length of Visible Light
Length of Day
Tomorrow will be .
, % of the Moon is Illuminated

Today's Extremes

State Highs State Lows

Community

WunderPhotos

Category 6

Welcome to Category 6. This is the collective home for Weather Underground's featured writeups by Dr. Jeff Masters (right), Bob Henson (left), Chris Burt, and other regular contributors.

Nearby

Air Quality

  Air Quality AQ Index Pollutant
Not available.

Snow Depth

Station Depth Elevation

Earthquake Activity

City Distance Mag. Time & Date
Minimum magnitude displayed is 2.5.

Coastal Water Temperatures

Place Temperature

Stations

Nearby Weather Stations

Station Location Temp. Windchill Dew Point Humidity Wind Precip. Elev Updated Type
                   

Watches & Warnings

There are currently no watches in effect.